San Francisco, California
Traffic Map
Current Weather Conditions
San Francisco, California
Few Clouds
Few Clouds
58°
Feels Like: 58°
Wind Chill: 58° Ceiling: Unl
Heat Index: 58° Visibility: 10mi
Dew Point: 57° Wind: 10mph
Humidity: 97% Direction: 300° (WNW)
Pressure: 29.99in Gusts: 0mph
Raw Report DataKSFO 301256Z 30009KT 10SM FEW005 14/14 A2999 RMK AO2 SLP154 T01440139 $
Traffic Incident Summary
Active as of:
Severity:
Category:
InformationThere was an issue retrieving the traffic information for this location. Please try a different location or try again shortly.
Advertisements
Track Severe Weather on mobile